Time;durP1;ratioP1;P1;durP2;ratioP2;P2;SDS_P1;SDS_P2;PMS_P1;PMS_P2;Temp;Humidity;BMP_temperature;BMP_pressure;BME280_temperature;BME280_humidity;BME280_pressure;Samples;Min_cycle;Max_cycle;Signal;HPM_P1;HPM_P2
2022/09/07 00:00:55;;;;;;;12.07;11.27;;;21.00;35.90;;;;;;5035841;28;20425;-78
2022/09/07 00:03:21;;;;;;;12.73;12.00;;;21.10;35.40;;;;;;5036315;28;21049;-80
2022/09/07 00:05:49;;;;;;;12.20;11.60;;;21.10;34.70;;;;;;5035634;28;20533;-80
2022/09/07 00:08:16;;;;;;;12.40;11.80;;;21.10;34.50;;;;;;5035556;28;20997;-78
2022/09/07 00:10:51;;;;;;;11.60;11.20;;;21.20;34.30;;;;;;5052136;28;20434;-78
2022/09/07 00:13:17;;;;;;;12.30;11.90;;;21.20;34.10;;;;;;5034880;28;20418;-79
2022/09/07 00:15:42;;;;;;;11.60;11.10;;;21.20;33.90;;;;;;5052311;28;20503;-78
2022/09/07 00:18:08;;;;;;;11.80;11.40;;;21.30;33.90;;;;;;5052291;28;20575;-78
2022/09/07 00:20:33;;;;;;;12.13;11.53;;;21.20;33.70;;;;;;5034380;28;20184;-79
2022/09/07 00:22:59;;;;;;;11.80;11.40;;;21.30;33.80;;;;;;5052383;28;20270;-78
2022/09/07 00:25:24;;;;;;;12.37;11.77;;;21.30;33.70;;;;;;5034232;28;20203;-77
2022/09/07 00:27:50;;;;;;;12.30;11.60;;;21.30;33.60;;;;;;5034572;28;20555;-79
2022/09/07 00:30:15;;;;;;;12.40;11.73;;;21.40;33.50;;;;;;5034192;28;20217;-77
2022/09/07 00:32:41;;;;;;;11.60;10.90;;;21.40;33.30;;;;;;5052322;28;20198;-78
2022/09/07 00:35:07;;;;;;;12.00;11.50;;;21.40;33.20;;;;;;5052093;28;20195;-78
2022/09/07 00:37:32;;;;;;;11.97;11.47;;;21.40;32.80;;;;;;5034045;28;20663;-77
2022/09/07 00:39:58;;;;;;;12.17;11.67;;;21.50;32.90;;;;;;5052197;28;20176;-78
2022/09/07 00:42:23;;;;;;;12.10;11.60;;;21.50;32.80;;;;;;5052063;28;20644;-80
2022/09/07 00:45:05;;;;;;;12.97;12.40;;;21.50;32.70;;;;;;5052413;28;20199;-77
2022/09/07 00:47:34;;;;;;;13.47;12.67;;;21.50;32.50;;;;;;5034579;28;20182;-78
2022/09/07 00:50:10;;;;;;;12.50;12.10;;;21.50;33.00;;;;;;5034036;28;20417;-77
2022/09/07 00:52:37;;;;;;;12.40;11.87;;;21.50;32.40;;;;;;5052580;28;20399;-78
2022/09/07 00:55:08;;;;;;;12.73;12.23;;;21.50;32.40;;;;;;5052001;28;20795;-79
2022/09/07 00:57:35;;;;;;;12.70;12.10;;;21.50;32.60;;;;;;5034159;28;20418;-79
2022/09/07 01:00:01;;;;;;;12.47;12.07;;;21.50;32.70;;;;;;5052270;28;20503;-77
2022/09/07 01:02:27;;;;;;;12.73;12.23;;;21.50;32.80;;;;;;5051931;28;20489;-77
2022/09/07 01:05:00;;;;;;;13.20;12.60;;;21.50;32.70;;;;;;5033775;28;20517;-75
2022/09/07 01:07:26;;;;;;;11.37;10.67;;;21.50;32.50;;;;;;5033902;28;20588;-77
2022/09/07 01:09:51;;;;;;;12.33;11.63;;;21.50;32.20;;;;;;5033894;28;20414;-80
2022/09/07 01:12:17;;;;;;;12.47;11.90;;;21.40;32.60;;;;;;5033914;28;20168;-76
2022/09/07 01:14:47;;;;;;;12.67;12.17;;;21.50;32.70;;;;;;5034022;28;20179;-76
2022/09/07 01:17:36;;;;;;;11.70;11.30;;;21.50;32.70;;;;;;5033853;28;20191;-78
2022/09/07 01:20:49;;;;;;;14.20;13.30;;;21.50;32.90;;;;;;5033884;28;20437;-78
2022/09/07 01:23:32;;;;;;;12.27;11.73;;;21.50;33.00;;;;;;5033915;28;20461;-79
2022/09/07 01:26:32;;;;;;;12.30;11.57;;;21.50;33.10;;;;;;5034071;28;20445;-78
2022/09/07 01:29:39;;;;;;;12.27;11.67;;;21.50;33.20;;;;;;5034071;28;20984;-78
2022/09/07 01:32:15;;;;;;;11.90;11.50;;;21.50;33.10;;;;;;5022884;28;20865;-79
2022/09/07 01:34:45;;;;;;;12.87;12.17;;;21.60;33.00;;;;;;5051796;28;20410;-79
2022/09/07 01:37:13;;;;;;;12.87;12.17;;;21.60;33.20;;;;;;5051355;28;20483;-77
2022/09/07 01:39:50;;;;;;;12.87;12.17;;;21.60;33.20;;;;;;5051640;28;20827;-79
2022/09/07 01:42:22;;;;;;;13.00;12.40;;;21.60;33.10;;;;;;5033721;28;20422;-78
2022/09/07 01:44:59;;;;;;;12.67;12.03;;;21.70;32.80;;;;;;5033646;28;20553;-78
2022/09/07 01:47:35;;;;;;;12.90;12.27;;;21.70;33.00;;;;;;5051558;28;20918;-79
2022/09/07 01:50:09;;;;;;;12.77;12.17;;;21.70;33.00;;;;;;5052859;28;20406;-80
2022/09/07 01:52:50;;;;;;;13.27;12.40;;;21.80;32.90;;;;;;5055846;28;20913;-78
2022/09/07 01:55:24;;;;;;;13.53;12.73;;;21.70;32.80;;;;;;5056938;28;20437;-77
2022/09/07 01:58:05;;;;;;;12.93;12.30;;;21.70;32.90;;;;;;5040141;28;20833;-76
2022/09/07 02:00:33;;;;;;;13.03;12.53;;;21.70;33.00;;;;;;5038429;28;20755;-77
2022/09/07 02:03:13;;;;;;;13.67;12.87;;;21.60;32.80;;;;;;5037461;28;20512;-76
2022/09/07 02:05:51;;;;;;;12.70;12.20;;;21.70;33.40;;;;;;5055236;28;20426;-76
2022/09/07 02:08:39;;;;;;;13.03;12.43;;;21.70;33.40;;;;;;5055311;28;20421;-76
2022/09/07 02:11:23;;;;;;;13.60;12.90;;;21.70;33.40;;;;;;5055057;28;20809;-76
2022/09/07 02:14:18;;;;;;;14.03;13.10;;;21.70;33.60;;;;;;5037465;28;20509;-76
2022/09/07 02:17:06;;;;;;;13.33;12.40;;;21.80;33.80;;;;;;5051165;28;20533;-76
2022/09/07 02:19:43;;;;;;;13.57;12.90;;;21.80;33.80;;;;;;5037428;28;20425;-79
2022/09/07 02:22:13;;;;;;;12.70;12.17;;;21.90;34.00;;;;;;5055247;28;20763;-77
2022/09/07 02:24:42;;;;;;;13.40;12.80;;;21.90;33.60;;;;;;5055318;28;20477;-77
2022/09/07 02:27:13;;;;;;;14.30;13.30;;;21.80;33.80;;;;;;5037388;28;20527;-79
2022/09/07 02:29:39;;;;;;;13.67;13.00;;;21.90;33.90;;;;;;5054949;28;20749;-80
2022/09/07 02:32:05;;;;;;;13.60;13.00;;;21.90;33.90;;;;;;5055026;28;20915;-78
2022/09/07 02:34:31;;;;;;;13.57;12.80;;;21.90;34.20;;;;;;5054480;28;20180;-79
2022/09/07 02:36:59;;;;;;;13.27;12.57;;;21.90;34.10;;;;;;5036769;28;20200;-79
2022/09/07 02:39:25;;;;;;;13.80;13.10;;;21.90;33.90;;;;;;5054770;28;20419;-78
2022/09/07 02:41:50;;;;;;;13.10;12.60;;;21.90;33.90;;;;;;5036540;28;20421;-80
2022/09/07 02:44:31;;;;;;;13.47;12.90;;;22.00;34.00;;;;;;5054458;28;20225;-77
2022/09/07 02:47:17;;;;;;;12.90;12.50;;;22.00;34.00;;;;;;5055064;28;20179;-80
2022/09/07 02:50:02;;;;;;;13.97;13.37;;;22.00;34.20;;;;;;5036972;28;20417;-78
2022/09/07 02:52:39;;;;;;;14.03;13.33;;;22.00;34.70;;;;;;5054346;28;20415;-79
2022/09/07 02:55:23;;;;;;;13.93;13.20;;;22.00;35.00;;;;;;5036433;28;20414;-79
2022/09/07 02:58:20;;;;;;;14.37;13.73;;;21.90;35.70;;;;;;5055701;28;20950;-79
2022/09/07 03:01:23;;;;;;;14.33;13.53;;;21.90;35.90;;;;;;5055765;28;20909;-79
2022/09/07 03:04:11;;;;;;;14.93;14.03;;;21.80;36.00;;;;;;5055373;28;20868;-79
2022/09/07 03:06:48;;;;;;;14.27;13.20;;;21.80;36.20;;;;;;5037465;28;20438;-80
2022/09/07 03:09:23;;;;;;;14.67;13.87;;;21.80;36.20;;;;;;5055752;28;20913;-80
2022/09/07 03:11:49;;;;;;;14.60;14.07;;;21.90;36.40;;;;;;5037125;28;20409;-77
2022/09/07 03:14:20;;;;;;;14.40;13.80;;;21.80;36.10;;;;;;5037829;28;20460;-79
2022/09/07 03:16:51;;;;;;;14.37;13.60;;;21.70;36.20;;;;;;5037419;28;20813;-78
2022/09/07 03:19:17;;;;;;;14.60;14.00;;;21.80;36.70;;;;;;5037421;28;20421;-83
2022/09/07 03:21:43;;;;;;;13.97;13.47;;;21.80;36.70;;;;;;5037986;28;20572;-83
2022/09/07 03:24:13;;;;;;;14.87;14.23;;;21.80;36.50;;;;;;5055216;28;20469;-83
2022/09/07 03:26:43;;;;;;;15.80;14.60;;;21.80;36.70;;;;;;5037400;28;20915;-83
2022/09/07 03:29:08;;;;;;;14.37;13.67;;;21.80;36.70;;;;;;5037301;28;20419;-83
2022/09/07 03:31:35;;;;;;;13.97;13.47;;;21.80;36.60;;;;;;5055534;28;20406;-83
2022/09/07 03:34:01;;;;;;;15.43;14.40;;;21.80;36.50;;;;;;5037414;28;20184;-81
2022/09/07 03:36:29;;;;;;;15.17;14.40;;;21.80;36.40;;;;;;5037228;28;20858;-81
2022/09/07 03:38:54;;;;;;;15.03;14.43;;;21.80;36.70;;;;;;5054981;28;20418;-81
2022/09/07 03:41:20;;;;;;;15.13;14.33;;;21.80;36.70;;;;;;5033431;28;20433;-80
2022/09/07 03:43:47;;;;;;;15.13;13.90;;;21.80;36.70;;;;;;5036141;28;20195;-78
2022/09/07 03:46:16;;;;;;;14.07;13.47;;;21.80;36.70;;;;;;5055547;28;20188;-81
2022/09/07 03:48:42;;;;;;;14.17;13.63;;;21.80;36.70;;;;;;5036898;28;20422;-81
2022/09/07 03:51:09;;;;;;;14.73;14.10;;;21.80;36.80;;;;;;5037197;28;20615;-81
2022/09/07 03:53:38;;;;;;;15.10;14.40;;;21.70;37.10;;;;;;5036576;28;20422;-81
2022/09/07 03:56:09;;;;;;;14.47;13.87;;;21.70;37.30;;;;;;5055130;28;20429;-81
2022/09/07 03:58:36;;;;;;;15.10;14.50;;;21.70;37.10;;;;;;5036792;28;20863;-79
2022/09/07 04:01:10;;;;;;;15.10;14.30;;;21.70;37.30;;;;;;5054361;28;20472;-81
2022/09/07 04:03:36;;;;;;;15.40;14.80;;;21.60;37.20;;;;;;5036423;28;20457;-79
2022/09/07 04:06:02;;;;;;;15.53;14.83;;;21.70;37.10;;;;;;5036417;28;20937;-80
2022/09/07 04:08:30;;;;;;;15.97;15.10;;;21.70;36.80;;;;;;5036582;28;20419;-81
2022/09/07 04:10:57;;;;;;;15.93;15.23;;;21.60;37.10;;;;;;5054435;28;20774;-80
2022/09/07 04:13:24;;;;;;;15.80;15.10;;;21.50;38.20;;;;;;5054457;28;20421;-80
2022/09/07 04:15:50;;;;;;;15.30;14.70;;;21.30;39.20;;;;;;5054473;28;20799;-80
2022/09/07 04:18:15;;;;;;;15.53;14.63;;;21.20;39.60;;;;;;5054956;28;20430;-79
2022/09/07 04:20:41;;;;;;;15.37;14.77;;;21.20;39.90;;;;;;5054070;28;20639;-80
2022/09/07 04:23:06;;;;;;;15.20;14.50;;;21.20;39.90;;;;;;5054846;28;20204;-80
2022/09/07 04:25:33;;;;;;;15.17;14.57;;;21.30;39.70;;;;;;5054230;28;20196;-79
2022/09/07 04:27:59;;;;;;;15.17;14.57;;;21.40;39.60;;;;;;5057745;28;20179;-79
2022/09/07 04:30:24;;;;;;;15.97;15.17;;;21.40;39.50;;;;;;5059233;28;20411;-78
2022/09/07 04:32:50;;;;;;;15.23;14.63;;;21.40;39.40;;;;;;5060337;28;20230;-79
2022/09/07 04:35:16;;;;;;;15.63;15.00;;;21.40;39.10;;;;;;5042041;28;20200;-79
2022/09/07 04:37:41;;;;;;;14.97;14.30;;;21.40;39.20;;;;;;5040465;28;20180;-79
2022/09/07 04:40:07;;;;;;;17.37;15.67;;;21.40;39.30;;;;;;5042182;28;20630;-79
2022/09/07 04:42:33;;;;;;;15.77;14.83;;;21.40;39.20;;;;;;5059224;28;20237;-78
2022/09/07 04:44:58;;;;;;;15.83;15.13;;;21.40;39.40;;;;;;5040294;28;20526;-78
2022/09/07 04:47:24;;;;;;;15.37;14.57;;;21.40;39.00;;;;;;5043257;28;20183;-80
2022/09/07 04:49:50;;;;;;;16.67;15.43;;;21.50;38.90;;;;;;5057123;28;20186;-79
2022/09/07 04:52:16;;;;;;;16.23;15.50;;;21.40;38.80;;;;;;5054519;28;20179;-80
2022/09/07 04:54:42;;;;;;;15.47;14.93;;;21.40;38.80;;;;;;5035635;28;20426;-78
2022/09/07 04:57:09;;;;;;;16.13;15.33;;;21.40;39.00;;;;;;5053698;28;20738;-79
2022/09/07 04:59:35;;;;;;;15.90;15.20;;;21.40;39.00;;;;;;5053567;28;20275;-80
2022/09/07 05:02:00;;;;;;;15.53;14.93;;;21.40;39.00;;;;;;5035839;28;20482;-80
2022/09/07 05:04:26;;;;;;;16.00;15.10;;;21.40;38.90;;;;;;5053191;28;20298;-81
2022/09/07 05:06:54;;;;;;;15.77;14.97;;;21.40;38.90;;;;;;5053748;28;20200;-82
2022/09/07 05:09:20;;;;;;;15.93;15.03;;;21.40;39.00;;;;;;5036018;28;20221;-82
2022/09/07 05:11:45;;;;;;;16.57;15.73;;;21.40;39.20;;;;;;5035816;28;20497;-79
2022/09/07 05:14:11;;;;;;;16.50;15.70;;;21.40;39.40;;;;;;5035259;28;20179;-79
2022/09/07 05:16:36;;;;;;;15.20;14.50;;;21.40;39.30;;;;;;5034941;28;20639;-80
2022/09/07 05:19:03;;;;;;;16.13;15.30;;;21.40;39.50;;;;;;5034763;28;20191;-79
2022/09/07 05:21:31;;;;;;;15.73;15.00;;;21.40;39.40;;;;;;5034247;28;20190;-80
2022/09/07 05:23:58;;;;;;;16.17;15.47;;;21.40;39.40;;;;;;5030190;28;20816;-81
2022/09/07 05:26:26;;;;;;;16.33;15.20;;;21.40;39.80;;;;;;5037812;28;20494;-80
2022/09/07 05:28:52;;;;;;;16.53;15.87;;;21.40;39.70;;;;;;5018825;28;20499;-79
2022/09/07 05:31:20;;;;;;;16.23;15.30;;;21.40;39.80;;;;;;5036325;28;20953;-78
2022/09/07 05:33:47;;;;;;;15.10;14.40;;;21.40;39.70;;;;;;5042764;28;20187;-75
2022/09/07 05:36:13;;;;;;;17.20;15.97;;;21.30;40.00;;;;;;5055800;28;20517;-77
2022/09/07 05:38:38;;;;;;;15.30;14.60;;;21.30;40.20;;;;;;5037848;28;20498;-76
2022/09/07 05:41:16;;;;;;;16.67;15.47;;;21.30;40.00;;;;;;5038596;28;20237;-78
2022/09/07 05:43:41;;;;;;;16.87;15.90;;;21.30;40.20;;;;;;5055846;28;20219;-77
2022/09/07 05:46:08;;;;;;;16.40;15.67;;;21.30;40.20;;;;;;5054792;28;20888;-77
2022/09/07 05:48:34;;;;;;;16.07;15.37;;;21.40;40.10;;;;;;5055623;28;20332;-79
2022/09/07 05:50:59;;;;;;;15.27;14.57;;;21.40;40.00;;;;;;5037779;28;20527;-76
2022/09/07 05:53:25;;;;;;;15.37;14.67;;;21.40;39.70;;;;;;5055182;28;20176;-77
2022/09/07 05:55:50;;;;;;;16.27;15.47;;;21.40;39.40;;;;;;5055207;28;20199;-79
2022/09/07 05:58:17;;;;;;;15.20;14.50;;;21.40;39.10;;;;;;5056070;28;20176;-78
2022/09/07 06:00:46;;;;;;;16.17;15.47;;;21.50;39.20;;;;;;5055472;28;20205;-77
2022/09/07 06:03:11;;;;;;;15.90;15.20;;;21.50;39.50;;;;;;5056738;28;20829;-77
2022/09/07 06:05:37;;;;;;;16.50;15.70;;;21.50;39.60;;;;;;5061911;28;20430;-77
2022/09/07 06:08:03;;;;;;;17.07;15.90;;;21.40;40.00;;;;;;5062818;28;20204;-79
2022/09/07 06:10:33;;;;;;;15.43;14.70;;;21.40;39.60;;;;;;5057662;28;20179;-78
2022/09/07 06:12:58;;;;;;;16.33;15.07;;;21.30;39.60;;;;;;5056668;28;20898;-78
2022/09/07 06:15:24;;;;;;;17.20;16.20;;;21.30;39.40;;;;;;5038335;28;20477;-78
2022/09/07 06:17:49;;;;;;;15.53;14.60;;;21.40;39.70;;;;;;5043009;28;20191;-77
2022/09/07 06:20:15;;;;;;;16.40;15.43;;;21.30;39.60;;;;;;5068259;28;20180;-78
2022/09/07 06:22:40;;;;;;;16.67;15.77;;;21.30;39.50;;;;;;5073896;28;20244;-79
2022/09/07 06:25:06;;;;;;;16.40;15.50;;;21.30;39.60;;;;;;5068881;28;20180;-78
2022/09/07 06:27:32;;;;;;;15.50;14.90;;;21.30;39.50;;;;;;5054809;28;20168;-79
2022/09/07 06:29:58;;;;;;;17.30;16.07;;;21.40;39.50;;;;;;5078066;28;20164;-78
2022/09/07 06:32:23;;;;;;;15.80;15.10;;;21.40;39.40;;;;;;5077955;28;20398;-79
2022/09/07 06:34:49;;;;;;;15.30;14.70;;;21.40;39.80;;;;;;5060414;28;20210;-79
2022/09/07 06:37:15;;;;;;;14.60;14.00;;;21.50;40.10;;;;;;5060557;28;20183;-78
2022/09/07 06:39:41;;;;;;;15.63;14.90;;;21.60;40.30;;;;;;5078505;28;20247;-79
2022/09/07 06:42:06;;;;;;;14.90;14.40;;;21.60;40.40;;;;;;5078553;28;20402;-78
2022/09/07 06:44:32;;;;;;;15.33;14.63;;;21.70;40.10;;;;;;5055404;28;20207;-78
2022/09/07 06:46:58;;;;;;;17.03;16.03;;;21.70;39.90;;;;;;5057203;28;20211;-76
2022/09/07 06:49:24;;;;;;;15.30;14.67;;;21.70;40.40;;;;;;5057574;28;20172;-78
2022/09/07 06:51:50;;;;;;;14.40;13.70;;;21.80;39.80;;;;;;5038989;28;20270;-75
2022/09/07 06:54:15;;;;;;;15.70;14.60;;;21.80;39.10;;;;;;5068275;28;20417;-78
2022/09/07 06:56:41;;;;;;;15.00;14.20;;;21.90;39.30;;;;;;5071996;28;20290;-77
2022/09/07 06:59:06;;;;;;;14.43;13.63;;;21.90;38.90;;;;;;5055864;28;20184;-77
2022/09/07 07:01:32;;;;;;;15.37;14.37;;;21.90;38.50;;;;;;5056209;28;20226;-77
2022/09/07 07:04:00;;;;;;;16.50;15.30;;;22.00;39.00;;;;;;5056435;28;20599;-79
2022/09/07 07:06:36;;;;;;;15.17;14.47;;;22.00;39.10;;;;;;5038250;28;20790;-78
2022/09/07 07:09:06;;;;;;;16.80;15.70;;;22.00;38.90;;;;;;5035565;28;20425;-78
2022/09/07 07:11:32;;;;;;;16.77;15.67;;;22.00;38.90;;;;;;5036390;28;20415;-78
2022/09/07 07:13:58;;;;;;;15.67;14.87;;;22.00;38.90;;;;;;5055182;28;20399;-78
2022/09/07 07:16:24;;;;;;;15.57;14.87;;;22.00;38.80;;;;;;5055122;28;20191;-79
2022/09/07 07:18:53;;;;;;;14.63;14.10;;;22.10;38.50;;;;;;5055415;28;20495;-78
2022/09/07 07:21:19;;;;;;;15.90;15.10;;;22.10;38.10;;;;;;5058494;28;20190;-78
2022/09/07 07:23:48;;;;;;;16.13;15.20;;;22.10;38.40;;;;;;5058660;28;20450;-79
2022/09/07 07:26:16;;;;;;;16.00;15.23;;;22.10;38.80;;;;;;5058585;28;20671;-79
2022/09/07 07:28:47;;;;;;;15.70;15.10;;;22.20;38.00;;;;;;5057745;28;20406;-79
2022/09/07 07:31:15;;;;;;;16.93;16.00;;;22.20;37.70;;;;;;5053000;28;20461;-79
2022/09/07 07:33:41;;;;;;;15.60;14.80;;;22.20;36.50;;;;;;5056167;28;20414;-79
2022/09/07 07:36:12;;;;;;;15.57;14.87;;;22.30;36.30;;;;;;5054770;28;20433;-79
2022/09/07 07:38:39;;;;;;;17.43;16.17;;;22.30;36.80;;;;;;5055698;28;20417;-78
2022/09/07 07:41:05;;;;;;;17.40;16.60;;;22.40;36.80;;;;;;5054235;28;20461;-78
2022/09/07 07:43:31;;;;;;;15.50;14.80;;;22.40;35.40;;;;;;5054826;28;20454;-78
2022/09/07 07:45:58;;;;;;;15.80;14.80;;;22.50;35.60;;;;;;5054356;28;20438;-79
2022/09/07 07:48:30;;;;;;;16.17;15.23;;;22.60;35.20;;;;;;5053171;28;20175;-79
2022/09/07 07:51:01;;;;;;;15.63;14.90;;;22.70;35.10;;;;;;5036391;28;20418;-78
2022/09/07 07:53:27;;;;;;;14.77;14.07;;;22.80;34.30;;;;;;5054112;28;20411;-78
2022/09/07 07:55:57;;;;;;;15.10;14.40;;;22.90;33.80;;;;;;5055373;28;21182;-81
2022/09/07 07:58:23;;;;;;;15.00;14.30;;;23.00;33.60;;;;;;5055253;28;20413;-79
2022/09/07 08:00:49;;;;;;;15.77;14.97;;;23.00;33.70;;;;;;5054787;28;20489;-79
2022/09/07 08:03:14;;;;;;;15.20;14.40;;;23.00;34.20;;;;;;5055271;28;20547;-77
2022/09/07 08:05:39;;;;;;;15.60;14.73;;;23.00;34.00;;;;;;5035769;28;20717;-80
2022/09/07 08:08:05;;;;;;;15.10;14.30;;;23.10;33.60;;;;;;5053184;28;20203;-77
2022/09/07 08:10:30;;;;;;;15.27;14.10;;;23.20;32.70;;;;;;5053323;28;20203;-77
2022/09/07 08:12:56;;;;;;;16.07;15.00;;;23.20;32.80;;;;;;5052814;28;20199;-77
2022/09/07 08:15:22;;;;;;;14.77;14.07;;;23.30;32.70;;;;;;5034879;28;20325;-78
2022/09/07 08:17:48;;;;;;;14.87;13.97;;;23.30;32.80;;;;;;5053149;28;20192;-79
2022/09/07 08:20:15;;;;;;;15.47;14.43;;;23.30;32.70;;;;;;5052957;28;20402;-78
2022/09/07 08:22:41;;;;;;;14.80;14.13;;;23.40;32.90;;;;;;5053130;28;20453;-78
2022/09/07 08:25:07;;;;;;;15.33;14.53;;;23.40;32.20;;;;;;5052605;28;20423;-78
2022/09/07 08:27:34;;;;;;;14.33;13.63;;;23.40;33.00;;;;;;5052299;28;20446;-77
2022/09/07 08:30:00;;;;;;;14.83;14.10;;;23.50;32.30;;;;;;5052691;28;20429;-77
2022/09/07 08:32:27;;;;;;;15.27;14.23;;;23.50;32.40;;;;;;5034659;28;20423;-77
2022/09/07 08:34:53;;;;;;;14.43;13.87;;;23.60;32.00;;;;;;5034875;28;20683;-77
2022/09/07 08:37:19;;;;;;;15.20;14.30;;;23.60;31.80;;;;;;5052434;28;20453;-78
2022/09/07 08:39:44;;;;;;;16.10;15.20;;;23.60;32.20;;;;;;5052456;28;20255;-77
2022/09/07 08:42:29;;;;;;;15.47;14.63;;;23.60;31.70;;;;;;5051870;28;20489;-75
2022/09/07 08:45:21;;;;;;;14.87;13.90;;;23.60;31.50;;;;;;5052188;28;20195;-78
2022/09/07 08:47:50;;;;;;;15.33;14.30;;;23.70;31.50;;;;;;5052389;28;20502;-77
2022/09/07 08:50:27;;;;;;;15.10;14.37;;;23.80;30.90;;;;;;5034568;28;20414;-77
2022/09/07 08:53:06;;;;;;;15.67;14.87;;;23.90;30.90;;;;;;5052421;28;20753;-77
2022/09/07 08:56:00;;;;;;;14.60;13.90;;;23.90;30.80;;;;;;5034533;28;20791;-77
2022/09/07 08:58:40;;;;;;;15.17;14.40;;;23.90;31.00;;;;;;5049543;28;20411;-77
2022/09/07 09:01:12;;;;;;;15.20;14.10;;;23.90;30.80;;;;;;5052686;28;20439;-78
2022/09/07 09:03:38;;;;;;;14.70;14.10;;;24.00;30.50;;;;;;5052560;28;20933;-78
2022/09/07 09:06:10;;;;;;;14.77;13.77;;;24.00;30.80;;;;;;5052936;28;20475;-77
2022/09/07 09:08:41;;;;;;;14.77;13.97;;;24.10;30.50;;;;;;5035496;28;20398;-77
2022/09/07 09:11:58;;;;;;;14.40;13.50;;;24.10;30.00;;;;;;5035873;28;20548;-77
2022/09/07 09:14:51;;;;;;;15.00;14.13;;;24.30;30.00;;;;;;5049448;28;20948;-78
2022/09/07 09:17:38;;;;;;;14.33;13.80;;;24.60;29.00;;;;;;5052935;28;20437;-79
2022/09/07 09:20:25;;;;;;;16.37;15.40;;;24.70;28.40;;;;;;5054059;28;20941;-80
2022/09/07 09:22:56;;;;;;;15.57;14.63;;;24.70;28.10;;;;;;5052610;28;20410;-77
2022/09/07 09:25:35;;;;;;;13.90;13.40;;;24.70;28.60;;;;;;5052971;28;20518;-79
2022/09/07 09:28:01;;;;;;;14.70;14.00;;;24.60;28.40;;;;;;5034531;28;20410;-79
2022/09/07 09:30:30;;;;;;;14.57;13.37;;;24.60;28.30;;;;;;5034418;28;20488;-79
2022/09/07 09:33:31;;;;;;;14.30;13.50;;;24.50;28.30;;;;;;5052431;28;20403;-79
2022/09/07 09:36:00;;;;;;;14.93;14.23;;;24.60;28.30;;;;;;4971507;28;20454;-78
2022/09/07 09:38:34;;;;;;;14.93;13.70;;;24.80;28.60;;;;;;5020841;28;20419;-79
2022/09/07 09:41:06;;;;;;;13.70;13.00;;;24.90;27.90;;;;;;5035121;28;20415;-78
2022/09/07 09:43:51;;;;;;;14.17;13.57;;;25.10;27.10;;;;;;5053127;28;20442;-79
2022/09/07 09:46:30;;;;;;;15.03;14.20;;;25.10;26.70;;;;;;5034872;28;20521;-79
2022/09/07 09:48:59;;;;;;;14.27;13.57;;;25.10;26.80;;;;;;5052591;28;20481;-79
2022/09/07 09:51:28;;;;;;;15.77;14.03;;;24.90;26.60;;;;;;5034856;28;20422;-78
2022/09/07 09:54:04;;;;;;;15.63;14.60;;;24.90;27.50;;;;;;5034515;28;20442;-77
2022/09/07 09:56:42;;;;;;;14.07;13.30;;;24.90;27.80;;;;;;5052543;28;20430;-77
2022/09/07 09:59:17;;;;;;;15.27;14.20;;;24.70;28.10;;;;;;5052795;28;20883;-77
2022/09/07 10:01:47;;;;;;;14.20;13.40;;;24.70;28.40;;;;;;5051870;28;20417;-78
2022/09/07 10:04:26;;;;;;;14.60;13.90;;;24.80;28.40;;;;;;5033595;28;20504;-78
2022/09/07 10:06:54;;;;;;;15.47;14.47;;;24.90;27.30;;;;;;5052054;28;20469;-78
2022/09/07 10:09:23;;;;;;;16.10;15.30;;;24.90;26.90;;;;;;5052141;28;20414;-77
2022/09/07 10:12:00;;;;;;;14.80;14.10;;;24.90;27.40;;;;;;5036790;28;20418;-78
2022/09/07 10:14:32;;;;;;;15.67;14.70;;;24.90;27.60;;;;;;5055842;28;20414;-78
2022/09/07 10:16:59;;;;;;;14.67;14.00;;;24.80;27.90;;;;;;5056056;28;20450;-77
2022/09/07 10:19:33;;;;;;;14.10;13.60;;;24.80;28.10;;;;;;5038231;28;20418;-77
2022/09/07 10:22:01;;;;;;;14.07;13.40;;;25.00;27.70;;;;;;5052380;28;20496;-78
2022/09/07 10:24:34;;;;;;;14.80;13.90;;;25.00;27.40;;;;;;5055870;28;20450;-78
2022/09/07 10:27:00;;;;;;;16.03;15.23;;;25.00;27.50;;;;;;5038454;28;20795;-77
2022/09/07 10:29:34;;;;;;;14.30;13.70;;;25.00;27.80;;;;;;5037514;28;20425;-77
2022/09/07 10:32:22;;;;;;;16.37;15.07;;;24.80;28.10;;;;;;5037648;28;20190;-77
2022/09/07 10:34:50;;;;;;;15.60;14.23;;;24.80;29.10;;;;;;5055463;28;20414;-77
2022/09/07 10:37:24;;;;;;;15.43;14.50;;;24.70;29.00;;;;;;5037126;28;20418;-78
2022/09/07 10:40:05;;;;;;;15.97;15.07;;;24.60;29.00;;;;;;5037305;28;20406;-77
2022/09/07 10:42:34;;;;;;;15.53;14.60;;;24.60;28.50;;;;;;5037594;28;20441;-78
2022/09/07 10:45:19;;;;;;;17.13;15.80;;;24.60;28.40;;;;;;5037224;28;21129;-78
2022/09/07 10:47:57;;;;;;;16.30;15.60;;;24.50;28.40;;;;;;5055546;28;20753;-79
2022/09/07 10:50:43;;;;;;;15.90;15.00;;;24.60;28.20;;;;;;5037456;28;20437;-78
2022/09/07 10:53:30;;;;;;;14.97;14.37;;;24.60;28.40;;;;;;5037350;28;20788;-78
2022/09/07 10:56:10;;;;;;;15.10;14.40;;;24.60;28.10;;;;;;5038199;28;20440;-77
2022/09/07 10:58:56;;;;;;;14.83;14.03;;;24.50;28.20;;;;;;5040125;28;20406;-77
2022/09/07 11:01:44;;;;;;;14.60;13.73;;;24.50;28.40;;;;;;5058445;28;20769;-76
2022/09/07 11:04:35;;;;;;;14.73;13.83;;;24.50;28.50;;;;;;5059531;28;20439;-78
2022/09/07 11:07:16;;;;;;;14.60;13.90;;;24.50;28.60;;;;;;5058263;28;20441;-78
2022/09/07 11:09:50;;;;;;;15.23;14.37;;;24.50;28.90;;;;;;5058067;28;20485;-78
2022/09/07 11:12:28;;;;;;;16.10;14.77;;;24.50;28.90;;;;;;5040479;28;20410;-78
2022/09/07 11:15:12;;;;;;;15.80;14.90;;;24.60;29.00;;;;;;5040518;28;20489;-78
2022/09/07 11:17:49;;;;;;;16.17;14.90;;;24.70;29.10;;;;;;5037695;28;20512;-78
2022/09/07 11:20:36;;;;;;;15.40;14.80;;;24.80;29.10;;;;;;5019416;28;20946;-78
2022/09/07 11:23:19;;;;;;;15.60;14.63;;;24.90;28.40;;;;;;5037210;28;20465;-78
2022/09/07 11:26:13;;;;;;;14.27;13.67;;;24.90;28.20;;;;;;5038184;28;20465;-78
2022/09/07 11:29:02;;;;;;;14.83;14.03;;;25.00;27.80;;;;;;5020294;28;20465;-79
2022/09/07 11:31:30;;;;;;;14.27;13.67;;;24.90;27.90;;;;;;5047235;28;20403;-78
2022/09/07 11:34:11;;;;;;;14.33;13.53;;;25.00;27.80;;;;;;5056419;28;20437;-79
2022/09/07 11:36:50;;;;;;;14.70;13.73;;;25.00;27.80;;;;;;5056697;28;20521;-78
2022/09/07 11:39:22;;;;;;;14.40;13.80;;;25.10;27.90;;;;;;5056516;28;20395;-79
2022/09/07 11:42:01;;;;;;;13.50;12.90;;;25.10;27.30;;;;;;5056552;28;20403;-78
2022/09/07 11:44:34;;;;;;;14.67;13.77;;;25.20;27.20;;;;;;5038522;28;20474;-78
2022/09/07 11:47:14;;;;;;;14.60;14.00;;;25.30;27.00;;;;;;5053305;28;20427;-78
2022/09/07 11:49:39;;;;;;;14.30;13.60;;;25.30;25.50;;;;;;5055337;28;20843;-77
2022/09/07 11:52:23;;;;;;;13.57;13.07;;;25.30;25.20;;;;;;5055947;28;20403;-78
2022/09/07 11:54:56;;;;;;;14.23;13.63;;;25.60;24.30;;;;;;5065360;28;20203;-79
2022/09/07 11:57:22;;;;;;;14.57;13.77;;;25.90;23.40;;;;;;5062180;28;20411;-78
2022/09/07 12:00:16;;;;;;;14.40;13.60;;;25.90;23.20;;;;;;5036846;28;20418;-78
2022/09/07 12:03:01;;;;;;;13.50;12.90;;;26.00;23.00;;;;;;5054472;28;20160;-79
2022/09/07 12:05:54;;;;;;;13.43;12.73;;;25.90;22.40;;;;;;5036042;28;20474;-79
2022/09/07 12:08:32;;;;;;;13.57;12.53;;;25.80;22.20;;;;;;5036055;28;20790;-78
2022/09/07 12:11:20;;;;;;;12.27;11.77;;;25.70;22.20;;;;;;5035215;28;20402;-76
2022/09/07 12:14:02;;;;;;;11.90;11.50;;;25.70;22.40;;;;;;5035350;28;20402;-79
2022/09/07 12:16:58;;;;;;;13.27;12.77;;;25.70;22.10;;;;;;5053630;28;20418;-77
2022/09/07 12:19:26;;;;;;;14.87;13.60;;;25.70;21.90;;;;;;5035332;28;20512;-77
2022/09/07 12:21:51;;;;;;;13.67;12.77;;;25.60;22.10;;;;;;5052621;28;20418;-76
2022/09/07 12:24:26;;;;;;;13.90;13.07;;;25.60;22.60;;;;;;5052693;28;20468;-77
2022/09/07 12:26:53;;;;;;;13.50;12.90;;;25.70;23.00;;;;;;5052877;28;20698;-78
2022/09/07 12:29:21;;;;;;;13.70;12.90;;;25.60;23.10;;;;;;5052650;28;20414;-78
2022/09/07 12:31:50;;;;;;;18.47;16.90;;;25.60;23.20;;;;;;5034865;28;20959;-79
2022/09/07 12:34:31;;;;;;;25.63;23.13;;;25.60;23.00;;;;;;5053562;28;20468;-79
2022/09/07 12:37:00;;;;;;;14.27;13.57;;;25.60;22.30;;;;;;5035169;28;20438;-78
2022/09/07 12:39:33;;;;;;;13.10;12.50;;;25.50;22.70;;;;;;5034935;28;20418;-77
2022/09/07 12:42:05;;;;;;;14.27;13.37;;;25.50;21.60;;;;;;5052786;28;20414;-77
2022/09/07 12:44:32;;;;;;;15.00;14.20;;;25.60;21.50;;;;;;5052563;28;20446;-79
2022/09/07 12:47:02;;;;;;;16.40;15.10;;;25.60;21.20;;;;;;5052921;28;20435;-79
2022/09/07 12:49:28;;;;;;;12.63;12.13;;;25.70;21.20;;;;;;5035283;28;20422;-77
2022/09/07 12:52:28;;;;;;;13.30;12.80;;;25.90;21.00;;;;;;5051201;28;20775;-78